Time;durP1;ratioP1;P1;durP2;ratioP2;P2;SDS_P1;SDS_P2;PMS_P1;PMS_P2;Temp;Humidity;BMP_temperature;BMP_pressure;BME280_temperature;BME280_humidity;BME280_pressure;Samples;Min_cycle;Max_cycle;Signal;HPM_P1;HPM_P2
2021/10/08 04:39:56;;;;;;;20.60;4.60;;;;;;;2.80;68.43;101922.38;1662063;84;21758;-31
2021/10/08 04:42:24;;;;;;;12.55;5.15;;;;;;;2.89;68.06;101915.12;1660543;86;21086;-31
2021/10/08 04:44:51;;;;;;;8.98;4.97;;;;;;;2.95;67.90;101905.53;1660552;86;21134;-31
2021/10/08 04:47:18;;;;;;;9.48;5.62;;;;;;;3.01;67.70;101911.04;1663264;85;21491;-32
2021/10/08 04:49:46;;;;;;;9.50;4.50;;;;;;;3.08;67.55;101911.89;1663102;85;21106;-36
2021/10/08 04:52:15;;;;;;;9.43;4.22;;;;;;;3.16;67.28;101913.61;1662584;85;21502;-36
2021/10/08 04:54:44;;;;;;;9.78;4.67;;;;;;;3.21;67.19;101909.58;1607537;87;21148;-36
2021/10/08 04:57:10;;;;;;;8.68;4.80;;;;;;;3.27;66.92;101910.32;1615167;88;21479;-36
2021/10/08 04:59:37;;;;;;;9.63;4.87;;;;;;;3.35;66.53;101906.45;1629112;86;21042;-31
2021/10/08 05:02:04;;;;;;;7.20;4.20;;;;;;;3.43;66.19;101906.07;1666643;85;20963;-31
2021/10/08 05:04:32;;;;;;;8.95;4.37;;;;;;;3.55;65.93;101910.12;1664581;84;21172;-36
2021/10/08 05:07:00;;;;;;;8.70;4.92;;;;;;;3.64;65.57;101908.91;1609164;87;21089;-36
2021/10/08 05:09:28;;;;;;;8.18;4.92;;;;;;;3.76;65.12;101915.14;1614786;87;21629;-36
2021/10/08 05:11:55;;;;;;;11.80;4.92;;;;;;;3.89;64.59;101911.52;1621840;87;21025;-36
2021/10/08 05:14:22;;;;;;;8.58;5.08;;;;;;;3.99;63.69;101908.58;1662853;84;21020;-36
2021/10/08 05:16:49;;;;;;;10.15;4.67;;;;;;;4.08;63.39;101909.07;1669172;84;21046;-36
2021/10/08 05:19:16;;;;;;;9.78;4.75;;;;;;;4.18;62.75;101916.52;1660858;85;21185;-36
2021/10/08 05:21:48;;;;;;;10.13;4.83;;;;;;;4.25;62.35;101921.19;1662783;84;20951;-36
2021/10/08 05:24:14;;;;;;;13.98;4.45;;;;;;;4.35;61.86;101917.38;1664138;84;21113;-31
2021/10/08 05:26:41;;;;;;;8.08;5.15;;;;;;;4.43;61.57;101916.05;1666339;84;21101;-32
2021/10/08 05:29:11;;;;;;;10.40;4.55;;;;;;;4.51;61.15;101914.72;1666606;85;21066;-31
2021/10/08 05:31:50;;;;;;;7.15;4.53;;;;;;;4.57;60.97;101914.14;1665936;84;21140;-37
2021/10/08 05:34:17;;;;;;;19.12;4.08;;;;;;;4.65;60.52;101920.61;1659644;84;21434;-37
2021/10/08 05:36:45;;;;;;;7.85;3.90;;;;;;;4.75;59.30;101921.94;1661416;84;21480;-36
2021/10/08 05:39:44;;;;;;;9.40;4.67;;;;;;;4.83;58.71;101918.03;1658958;84;21648;-32
2021/10/08 05:42:11;;;;;;;7.25;4.37;;;;;;;4.93;58.10;101920.27;1664604;84;21521;-32
2021/10/08 05:44:51;;;;;;;11.45;4.17;;;;;;;5.04;57.03;101914.27;1661601;84;21057;-32
2021/10/08 05:47:23;;;;;;;10.18;4.78;;;;;;;5.12;57.19;101916.84;1674443;84;20970;-32
2021/10/08 05:49:51;;;;;;;11.03;4.10;;;;;;;5.21;56.73;101915.08;1647368;84;21118;-36
2021/10/08 05:52:18;;;;;;;10.60;4.12;;;;;;;5.28;56.60;101910.69;1632554;86;20970;-32
2021/10/08 05:55:04;;;;;;;6.20;3.70;;;;;;;5.36;56.07;101915.81;1624244;87;21477;-33
2021/10/08 05:57:30;;;;;;;12.37;3.98;;;;;;;5.44;56.00;101909.67;1630174;87;21018;-37
2021/10/08 06:00:00;;;;;;;10.80;4.05;;;;;;;5.52;55.79;101913.53;1664853;84;21140;-37
2021/10/08 06:02:28;;;;;;;8.23;4.55;;;;;;;5.59;54.94;101908.67;1665954;84;21467;-37
2021/10/08 06:04:55;;;;;;;16.48;4.28;;;;;;;5.65;54.59;101903.28;1669098;85;21050;-37
2021/10/08 06:07:22;;;;;;;10.50;4.28;;;;;;;5.71;54.37;101903.56;1671001;85;20979;-32
2021/10/08 06:09:50;;;;;;;15.18;4.53;;;;;;;5.75;54.29;101901.59;1662038;84;21017;-31
2021/10/08 06:12:17;;;;;;;18.65;4.12;;;;;;;5.83;54.41;101902.81;1663717;84;20994;-36
2021/10/08 06:14:46;;;;;;;14.80;5.37;;;;;;;5.90;54.51;101897.47;1667533;84;22016;-32
2021/10/08 06:17:14;;;;;;;8.65;3.92;;;;;;;5.92;53.74;101892.88;1649681;84;21061;-31
2021/10/08 06:20:01;;;;;;;10.30;4.22;;;;;;;5.87;53.56;101891.74;1664966;83;21755;-35
2021/10/08 06:23:16;;;;;;;11.60;3.67;;;;;;;5.83;53.44;101892.42;1630791;85;21372;-37
2021/10/08 06:26:13;;;;;;;17.98;4.03;;;;;;;5.82;53.76;101893.25;1664069;84;21089;-37
2021/10/08 06:29:16;;;;;;;15.13;5.55;;;;;;;5.91;54.01;101887.17;1666416;84;21042;-36
2021/10/08 06:31:50;;;;;;;14.25;3.92;;;;;;;6.07;54.25;101892.64;1640992;84;21038;-36
2021/10/08 06:34:18;;;;;;;11.12;3.58;;;;;;;6.28;53.72;101888.79;1665422;84;21058;-37
2021/10/08 06:36:49;;;;;;;8.98;3.55;;;;;;;6.42;53.02;101879.84;1661879;85;21113;-37
2021/10/08 06:39:16;;;;;;;8.33;3.50;;;;;;;6.54;52.77;101879.47;1663252;84;21502;-30
2021/10/08 06:41:44;;;;;;;11.75;3.98;;;;;;;6.66;52.64;101876.06;1664248;84;21858;-36
2021/10/08 06:44:14;;;;;;;10.55;3.52;;;;;;;6.77;51.51;101874.79;1664160;84;21149;-33
2021/10/08 06:46:41;;;;;;;16.50;4.87;;;;;;;6.89;51.50;101873.98;1662490;85;21696;-37
2021/10/08 06:49:08;;;;;;;10.82;3.80;;;;;;;7.01;51.16;101877.89;1644064;85;21353;-32
2021/10/08 06:51:36;;;;;;;13.65;4.00;;;;;;;7.11;50.90;101880.04;1663136;84;21041;-37
2021/10/08 06:54:04;;;;;;;11.75;3.22;;;;;;;7.21;50.33;101878.27;1665834;84;21635;-32
2021/10/08 06:56:32;;;;;;;13.00;3.80;;;;;;;7.28;49.98;101873.77;1664932;84;21078;-31
2021/10/08 06:59:01;;;;;;;14.78;4.17;;;;;;;7.36;49.78;101874.05;1666561;84;21069;-37
2021/10/08 07:01:30;;;;;;;8.98;3.25;;;;;;;7.43;49.55;101876.09;1664211;84;21044;-32
2021/10/08 07:04:00;;;;;;;20.00;3.92;;;;;;;7.51;49.08;101873.76;1642843;85;21066;-36
2021/10/08 07:06:29;;;;;;;14.23;4.28;;;;;;;7.57;49.00;101871.38;1664426;84;21049;-37
2021/10/08 07:08:59;;;;;;;10.88;3.50;;;;;;;7.64;49.15;101878.58;1660507;86;21147;-32
2021/10/08 07:11:26;;;;;;;22.30;4.10;;;;;;;7.71;48.49;101875.36;1659471;84;21586;-32
2021/10/08 07:13:54;;;;;;;24.98;3.85;;;;;;;7.72;48.58;101876.75;1658354;84;21081;-33
2021/10/08 07:16:25;;;;;;;9.93;3.25;;;;;;;7.76;48.68;101872.52;1663324;84;21079;-37
2021/10/08 07:18:55;;;;;;;11.53;3.58;;;;;;;7.81;48.46;101876.59;1651091;85;21046;-32
2021/10/08 07:21:22;;;;;;;14.33;4.12;;;;;;;7.86;48.00;101872.44;1660341;84;21359;-33
2021/10/08 07:23:49;;;;;;;25.10;4.33;;;;;;;7.91;48.03;101867.87;1665132;84;21582;-37
2021/10/08 07:26:17;;;;;;;13.62;3.47;;;;;;;7.99;47.90;101865.10;1662811;84;21692;-37
2021/10/08 07:28:44;;;;;;;7.72;3.83;;;;;;;8.04;47.77;101870.91;1661340;84;21078;-34
2021/10/08 07:31:11;;;;;;;15.60;3.35;;;;;;;8.09;47.36;101871.95;1663199;84;21068;-37
2021/10/08 07:33:38;;;;;;;9.93;3.30;;;;;;;8.12;47.30;101865.14;1660177;84;21606;-33
2021/10/08 07:36:05;;;;;;;11.65;3.85;;;;;;;8.10;47.38;101868.51;1665317;84;21006;-33
2021/10/08 07:38:34;;;;;;;14.73;5.00;;;;;;;8.10;47.48;101873.72;1634712;86;21081;-34
2021/10/08 07:41:01;;;;;;;15.53;4.40;;;;;;;8.10;47.58;101871.12;1666362;84;21545;-36
2021/10/08 07:43:28;;;;;;;20.30;3.75;;;;;;;8.14;48.07;101872.59;1657541;85;21653;-36
2021/10/08 07:45:57;;;;;;;13.88;3.77;;;;;;;8.21;47.63;101873.69;1659441;85;21083;-32
2021/10/08 07:48:24;;;;;;;20.08;3.70;;;;;;;8.32;47.41;101874.05;1662925;85;21064;-32
2021/10/08 07:50:51;;;;;;;14.15;3.40;;;;;;;8.39;46.75;101869.55;1660038;84;21085;-36
2021/10/08 07:53:17;;;;;;;12.05;3.08;;;;;;;8.45;46.76;101866.72;1624114;86;21035;-36
2021/10/08 07:55:44;;;;;;;12.70;3.50;;;;;;;8.56;46.61;101870.99;1626364;86;21427;-36
2021/10/08 07:58:11;;;;;;;16.50;4.58;;;;;;;8.71;46.41;101869.32;1623039;86;21041;-36
2021/10/08 08:00:38;;;;;;;14.75;5.15;;;;;;;8.86;45.58;101871.09;1629371;86;21058;-37
2021/10/08 08:03:05;;;;;;;13.13;3.42;;;;;;;9.01;45.32;101866.80;1627144;86;21509;-32
2021/10/08 08:05:32;;;;;;;15.50;2.72;;;;;;;9.12;44.73;101869.74;1623297;86;21071;-36
2021/10/08 08:08:05;;;;;;;5.92;2.85;;;;;;;9.22;44.10;101863.94;1615811;87;21057;-36
2021/10/08 08:10:32;;;;;;;21.57;3.83;;;;;;;9.30;44.66;101868.56;1624141;86;21095;-36
2021/10/08 08:13:02;;;;;;;11.28;3.20;;;;;;;9.41;44.15;101869.31;1573224;87;21081;-32
2021/10/08 08:15:35;;;;;;;19.90;3.25;;;;;;;9.52;44.17;101871.40;1601348;86;21025;-32
2021/10/08 08:18:14;;;;;;;19.32;3.52;;;;;;;9.65;44.29;101871.75;1621325;86;21038;-36
2021/10/08 08:20:41;;;;;;;7.75;2.60;;;;;;;9.81;43.80;101881.38;1605885;88;21083;-32
2021/10/08 08:23:14;;;;;;;13.48;3.25;;;;;;;9.89;42.75;101878.97;1625128;86;21086;-37
2021/10/08 08:25:40;;;;;;;19.27;3.75;;;;;;;9.94;42.42;101879.98;1617474;86;21077;-37
2021/10/08 08:28:08;;;;;;;10.50;2.87;;;;;;;9.94;42.61;101875.19;1660895;85;21629;-36
2021/10/08 08:30:38;;;;;;;15.80;2.77;;;;;;;9.97;42.54;101873.95;1658175;85;21050;-31
2021/10/08 08:33:03;;;;;;;18.48;3.02;;;;;;;9.99;42.44;101878.39;1623597;86;21021;-31
2021/10/08 08:35:30;;;;;;;12.10;3.25;;;;;;;10.03;42.40;101864.95;1604494;87;21054;-36
2021/10/08 08:37:57;;;;;;;11.88;2.70;;;;;;;10.10;42.45;101874.34;1608553;87;20995;-31
2021/10/08 08:40:28;;;;;;;11.43;3.67;;;;;;;10.17;42.74;101880.61;1658105;85;21014;-31
2021/10/08 08:42:57;;;;;;;9.68;3.10;;;;;;;10.25;41.22;101880.41;1626716;86;21038;-36
2021/10/08 08:45:24;;;;;;;6.45;2.87;;;;;;;10.36;41.80;101878.09;1627500;86;21144;-36
2021/10/08 08:48:08;;;;;;;9.30;2.90;;;;;;;10.53;40.81;101870.67;1627097;86;21339;-31
2021/10/08 08:50:39;;;;;;;12.10;3.20;;;;;;;10.64;40.67;101867.47;1593370;88;21599;-36
2021/10/08 08:53:07;;;;;;;8.43;3.52;;;;;;;10.76;39.94;101865.57;1603170;87;21034;-31
2021/10/08 08:55:37;;;;;;;10.40;3.10;;;;;;;10.89;40.45;101865.44;1626955;86;21073;-33
2021/10/08 08:58:04;;;;;;;9.05;3.02;;;;;;;11.04;39.43;101867.54;1626430;86;21014;-32
2021/10/08 09:00:31;;;;;;;10.45;2.80;;;;;;;11.17;39.90;101870.45;1667465;84;21478;-32
2021/10/08 09:03:00;;;;;;;10.68;2.62;;;;;;;11.31;39.02;101862.05;1629729;86;21389;-35
2021/10/08 09:05:32;;;;;;;16.02;3.17;;;;;;;11.30;38.80;101872.91;1608133;88;21448;-30
2021/10/08 09:08:08;;;;;;;11.70;2.77;;;;;;;11.19;38.40;101868.78;1624150;86;21026;-35
2021/10/08 09:10:37;;;;;;;11.00;2.95;;;;;;;10.99;38.37;101866.55;1628122;86;21030;-32
2021/10/08 09:13:14;;;;;;;8.98;3.15;;;;;;;10.79;38.81;101867.40;1627097;86;21104;-32
2021/10/08 09:15:53;;;;;;;13.48;3.22;;;;;;;10.62;39.03;101873.53;1584718;87;20990;-37
2021/10/08 09:18:23;;;;;;;15.68;3.47;;;;;;;10.44;39.28;101872.64;1663089;84;21486;-37
2021/10/08 09:21:05;;;;;;;5.75;2.90;;;;;;;10.29;39.47;101876.16;1668209;84;21022;-37
2021/10/08 09:23:40;;;;;;;16.55;3.52;;;;;;;10.16;39.38;101867.50;1665007;84;21014;-37
2021/10/08 09:26:20;;;;;;;;;;;;;;;10.09;40.03;101873.00;1628906;86;21963;-33
2021/10/08 09:28:56;;;;;;;8.05;2.83;;;;;;;10.06;40.36;101873.78;1618357;86;20409;-37
2021/10/08 09:31:29;;;;;;;20.25;3.42;;;;;;;10.03;40.64;101873.72;1618978;86;21665;-32
2021/10/08 09:34:21;;;;;;;10.43;3.30;;;;;;;10.04;40.87;101865.45;1619159;87;21049;-32
2021/10/08 09:36:53;;;;;;;14.50;3.22;;;;;;;10.10;40.72;101868.23;1618628;86;21529;-33
2021/10/08 09:39:23;;;;;;;12.60;3.33;;;;;;;10.19;41.00;101867.57;1616320;86;21575;-31
2021/10/08 09:42:01;;;;;;;14.33;4.05;;;;;;;10.29;40.51;101858.73;1618113;86;21050;-30
2021/10/08 09:44:41;;;;;;;15.90;3.27;;;;;;;10.41;40.21;101865.13;1616705;86;21705;-37
2021/10/08 09:47:12;;;;;;;16.85;3.27;;;;;;;10.49;40.12;101868.38;1599925;87;21049;-33
2021/10/08 09:49:40;;;;;;;12.73;3.17;;;;;;;10.51;39.98;101860.59;1622450;85;21057;-37
2021/10/08 09:52:30;;;;;;;13.55;2.90;;;;;;;10.51;39.78;101868.02;1621450;86;21199;-31
2021/10/08 09:55:11;;;;;;;10.95;3.77;;;;;;;10.50;39.79;101865.38;1619591;86;21118;-37
2021/10/08 09:57:54;;;;;;;14.80;2.95;;;;;;;10.45;39.90;101870.48;1620434;86;21992;-37
2021/10/08 10:00:43;;;;;;;18.95;3.33;;;;;;;10.37;40.05;101866.34;1608327;87;21739;-32
2021/10/08 10:03:11;;;;;;;13.22;2.92;;;;;;;10.31;40.40;101863.57;1619489;86;21046;-37
2021/10/08 10:05:38;;;;;;;14.43;3.77;;;;;;;10.28;40.71;101852.16;1622904;86;21323;-32
2021/10/08 10:08:06;;;;;;;22.25;3.45;;;;;;;10.24;40.94;101854.23;1621874;86;21066;-37
2021/10/08 10:10:33;;;;;;;17.75;3.35;;;;;;;10.18;41.19;101855.34;1629455;86;21468;-32
2021/10/08 10:13:00;;;;;;;17.10;3.50;;;;;;;10.12;41.55;101860.87;1614277;87;21544;-31
2021/10/08 10:15:28;;;;;;;22.82;2.77;;;;;;;10.09;42.08;101855.58;1605554;88;20975;-31
2021/10/08 10:17:57;;;;;;;13.60;3.50;;;;;;;10.08;42.46;101863.36;1618144;86;21139;-31
2021/10/08 10:20:24;;;;;;;24.98;3.77;;;;;;;10.10;42.53;101863.87;1616965;86;21037;-32
2021/10/08 10:22:50;;;;;;;14.65;4.03;;;;;;;10.09;42.85;101856.88;1664524;84;21077;-36
2021/10/08 10:25:17;;;;;;;12.70;2.80;;;;;;;10.13;43.36;101852.59;1601005;87;21066;-37
2021/10/08 10:27:46;;;;;;;18.27;3.40;;;;;;;10.14;43.50;101857.86;1610589;87;21095;-32
2021/10/08 10:30:13;;;;;;;31.50;3.72;;;;;;;10.12;43.62;101853.02;1622224;86;21149;-36
2021/10/08 10:32:45;;;;;;;21.40;3.22;;;;;;;10.14;43.90;101843.91;1667175;84;21035;-36
2021/10/08 10:35:42;;;;;;;15.20;3.60;;;;;;;10.17;44.03;101845.73;1660262;85;21068;-32
2021/10/08 10:38:25;;;;;;;;;;;;;;;10.18;44.09;101850.99;1666368;85;21038;-32
2021/10/08 10:41:14;;;;;;;;;;;;;;;10.19;44.33;101848.84;1667774;85;20139;-32
2021/10/08 10:43:46;;;;;;;17.80;3.80;;;;;;;10.17;44.62;101846.61;1647785;85;20412;-34
2021/10/08 10:49:37;;;;;;;18.12;3.22;;;;;;;10.16;44.77;101843.97;1582827;88;21180;-37
2021/10/08 10:52:03;;;;;;;23.57;3.98;;;;;;;10.16;44.80;101842.66;1586689;88;21605;-36
2021/10/08 10:54:56;;;;;;;15.80;4.50;;;;;;;10.18;45.09;101832.69;1590625;88;21103;-37
2021/10/08 10:57:39;;;;;;;14.73;3.42;;;;;;;10.23;44.97;101840.66;1586648;88;21103;-36
2021/10/08 11:00:23;;;;;;;22.85;4.10;;;;;;;10.24;45.08;101829.38;1594086;88;21109;-37
2021/10/08 11:03:13;;;;;;;17.73;3.20;;;;;;;10.20;45.30;101835.33;1586527;88;21125;-37
2021/10/08 11:06:14;;;;;;;16.85;3.47;;;;;;;10.18;45.27;101835.30;1582842;88;21142;-37
2021/10/08 11:09:17;;;;;;;23.70;4.62;;;;;;;10.18;45.46;101840.95;1544757;91;21130;-36
2021/10/08 11:11:43;;;;;;;19.80;4.08;;;;;;;10.18;45.22;101843.15;1479527;95;21096;-32
2021/10/08 11:14:20;;;;;;;23.45;4.60;;;;;;;10.16;45.35;101827.84;1516189;92;21100;-36
2021/10/08 11:16:48;;;;;;;14.23;4.37;;;;;;;10.19;44.90;101830.52;1543359;91;21089;-36
2021/10/08 11:19:40;;;;;;;24.45;5.35;;;;;;;10.19;44.77;101833.56;1537826;91;21469;-31
2021/10/08 11:22:08;;;;;;;11.70;4.08;;;;;;;10.20;44.81;101836.22;1540222;91;21645;-36
2021/10/08 11:24:34;;;;;;;11.28;4.70;;;;;;;10.26;45.31;101832.91;1541030;91;21084;-32
2021/10/08 11:27:03;;;;;;;18.25;4.30;;;;;;;10.30;44.85;101834.34;1582235;89;21034;-33
2021/10/08 11:29:36;;;;;;;20.12;5.33;;;;;;;10.34;44.97;101829.66;1586383;88;21139;-32
2021/10/08 11:32:09;;;;;;;16.40;4.80;;;;;;;10.37;44.97;101831.02;1558638;90;21201;-32
2021/10/08 11:34:53;;;;;;;17.87;4.40;;;;;;;10.39;44.79;101831.97;1555504;90;21135;-36
2021/10/08 11:37:21;;;;;;;12.90;4.55;;;;;;;10.44;44.77;101827.28;1579435;89;21659;-33
2021/10/08 11:39:49;;;;;;;19.75;4.75;;;;;;;10.48;44.68;101828.68;1595907;89;21075;-36
2021/10/08 11:42:17;;;;;;;15.13;4.55;;;;;;;10.50;44.23;101821.77;1587665;88;21094;-36
2021/10/08 11:45:04;;;;;;;19.80;4.62;;;;;;;10.53;44.23;101824.45;1593354;89;21101;-37
2021/10/08 11:47:37;;;;;;;29.25;5.75;;;;;;;10.56;43.80;101827.58;1625569;85;21047;-37
2021/10/08 11:52:55;;;;;;;17.48;5.60;;;;;;;10.59;44.10;101827.20;1626257;87;21113;-32
2021/10/08 11:55:25;;;;;;;24.52;5.47;;;;;;;10.64;43.91;101825.59;1661028;84;21530;-32
2021/10/08 11:58:04;;;;;;;17.65;5.10;;;;;;;10.68;43.75;101837.03;1655617;84;21072;-33
2021/10/08 12:00:44;;;;;;;19.25;4.95;;;;;;;10.71;43.74;101828.35;1659882;84;21069;-39
2021/10/08 12:03:14;;;;;;;14.33;5.37;;;;;;;10.73;43.75;101837.15;1658937;84;21068;-32
2021/10/08 12:06:00;;;;;;;17.12;5.17;;;;;;;10.74;43.27;101835.87;1660662;85;21018;-32
2021/10/08 12:08:36;;;;;;;17.23;5.20;;;;;;;10.74;43.19;101833.67;1660261;85;21034;-37
2021/10/08 12:11:09;;;;;;;19.30;6.00;;;;;;;10.75;42.78;101835.44;1660924;85;21114;-37
2021/10/08 12:13:54;;;;;;;22.45;5.10;;;;;;;10.72;42.77;101828.81;1658747;85;21537;-37
2021/10/08 12:16:23;;;;;;;19.90;5.42;;;;;;;10.71;43.19;101830.54;1655047;85;20990;-36
2021/10/08 12:18:53;;;;;;;20.97;5.35;;;;;;;10.72;43.35;101845.39;1662107;85;21682;-36
2021/10/08 12:21:26;;;;;;;14.68;4.95;;;;;;;10.69;42.59;101832.67;1656655;85;21580;-36
2021/10/08 12:24:14;;;;;;;24.65;6.30;;;;;;;10.64;41.93;101836.06;1657866;85;21099;-32
2021/10/08 12:26:57;;;;;;;14.85;5.42;;;;;;;10.60;41.78;101835.52;1664558;85;20990;-32
2021/10/08 12:29:24;;;;;;;15.08;5.58;;;;;;;10.56;41.28;101832.39;1663386;84;21662;-32
2021/10/08 12:32:04;;;;;;;19.90;7.62;;;;;;;10.53;41.07;101834.91;1628053;87;21452;-32
2021/10/08 12:34:45;;;;;;;18.00;6.83;;;;;;;10.54;40.54;101839.72;1632782;86;21054;-34
2021/10/08 12:37:22;;;;;;;14.65;6.50;;;;;;;10.55;40.77;101831.02;1662848;84;21661;-37
2021/10/08 12:40:10;;;;;;;17.48;6.22;;;;;;;10.59;40.91;101832.87;1661209;84;21037;-37
2021/10/08 12:42:41;;;;;;;16.32;6.03;;;;;;;10.61;40.53;101826.84;1653878;85;21050;-36
2021/10/08 12:45:36;;;;;;;11.05;5.50;;;;;;;10.66;40.24;101832.16;1618539;87;21086;-37
2021/10/08 12:48:04;;;;;;;16.80;6.03;;;;;;;10.69;39.78;101833.56;1622290;87;21570;-37
2021/10/08 12:50:36;;;;;;;21.82;7.20;;;;;;;10.74;39.75;101829.75;1608667;88;21027;-36
2021/10/08 12:57:15;;;;;;;14.10;6.33;;;;;;;10.79;38.78;101830.75;1624965;88;21163;-36
2021/10/08 12:59:47;;;;;;;15.13;6.62;;;;;;;10.81;38.79;101826.42;1662796;86;21038;-36
2021/10/08 13:02:14;;;;;;;19.50;7.40;;;;;;;10.79;38.49;101826.82;1665403;86;21558;-32
2021/10/08 13:04:41;;;;;;;19.30;6.72;;;;;;;10.80;38.52;101826.84;1665099;86;21058;-36
2021/10/08 13:07:19;;;;;;;20.20;7.47;;;;;;;10.81;38.54;101819.45;1665714;86;21098;-31
2021/10/08 13:10:14;;;;;;;33.35;8.28;;;;;;;10.83;38.49;101814.23;1665457;86;21133;-32
2021/10/08 13:12:50;;;;;;;16.77;6.78;;;;;;;10.84;38.31;101817.30;1665540;86;21058;-36
2021/10/08 13:15:28;;;;;;;19.60;6.67;;;;;;;10.84;38.58;101812.98;1664990;86;21066;-36
2021/10/08 13:18:11;;;;;;;15.98;7.28;;;;;;;10.84;38.58;101808.14;1664690;86;21022;-36
2021/10/08 13:20:33;;;;;;;16.90;6.62;;;;;;;10.82;38.72;101812.05;1659002;86;21029;-36
2021/10/08 13:23:03;;;;;;;22.80;7.92;;;;;;;10.81;38.98;101814.21;1658172;85;21040;-37
2021/10/08 13:25:30;;;;;;;28.12;8.75;;;;;;;10.81;39.36;101816.83;1652590;86;21034;-36
2021/10/08 13:27:57;;;;;;;18.40;6.53;;;;;;;10.82;39.31;101808.12;1653803;86;21123;-37
2021/10/08 13:30:23;;;;;;;26.10;7.62;;;;;;;10.83;39.78;101815.55;1658303;86;21524;-36
2021/10/08 13:32:51;;;;;;;15.10;6.78;;;;;;;10.83;39.92;101810.31;1653831;86;21033;-36
2021/10/08 13:35:18;;;;;;;23.10;7.17;;;;;;;10.81;40.04;101808.09;1658582;86;21593;-32
2021/10/08 13:37:45;;;;;;;15.23;6.78;;;;;;;10.79;40.24;101805.88;1661085;86;21030;-33
2021/10/08 13:40:12;;;;;;;21.73;7.50;;;;;;;10.77;40.46;101808.44;1610954;88;21755;-36
2021/10/08 13:42:41;;;;;;;23.20;6.95;;;;;;;10.74;40.61;101816.66;1629937;87;21098;-36
2021/10/08 13:45:09;;;;;;;22.35;7.85;;;;;;;10.70;40.77;101810.45;1677848;85;21101;-34
2021/10/08 13:47:37;;;;;;;18.65;8.25;;;;;;;10.69;41.20;101813.05;1677636;85;21101;-32
2021/10/08 13:50:04;;;;;;;20.75;7.35;;;;;;;10.68;40.78;101808.23;1672270;85;21120;-31
2021/10/08 13:52:32;;;;;;;18.48;6.72;;;;;;;10.66;40.49;101809.91;1670065;85;21065;-32
2021/10/08 13:54:59;;;;;;;18.48;7.05;;;;;;;10.65;40.58;101802.91;1677786;85;21090;-32
2021/10/08 13:57:26;;;;;;;20.75;7.55;;;;;;;10.64;40.67;101807.70;1677936;85;21097;-32
2021/10/08 13:59:53;;;;;;;29.40;11.18;;;;;;;10.62;40.63;101802.86;1677787;85;21062;-36
2021/10/08 14:07:28;;;;;;;22.98;8.20;;;;;;;10.60;41.06;101807.16;1678352;85;21529;-32
2021/10/08 14:12:30;;;;;;;20.62;8.80;;;;;;;10.55;41.06;101799.61;1677869;85;21101;-32
2021/10/08 14:14:57;;;;;;;19.52;9.18;;;;;;;10.52;40.95;101792.59;1678135;85;21077;-32
2021/10/08 14:17:23;;;;;;;18.57;8.98;;;;;;;10.50;40.84;101798.22;1677877;85;21695;-31
2021/10/08 14:19:50;;;;;;;20.88;8.45;;;;;;;10.49;40.93;101792.92;1668094;85;21061;-32
2021/10/08 14:22:17;;;;;;;29.45;8.08;;;;;;;10.47;41.04;101792.02;1675135;85;21002;-32
2021/10/08 14:24:44;;;;;;;22.60;8.70;;;;;;;10.47;41.03;101790.70;1666054;85;21057;-32
2021/10/08 14:27:11;;;;;;;21.37;7.50;;;;;;;10.45;41.33;101793.72;1670809;85;21073;-33
2021/10/08 14:29:38;;;;;;;14.65;8.33;;;;;;;10.45;41.28;101792.41;1671179;85;21115;-36
2021/10/08 14:32:06;;;;;;;19.30;8.60;;;;;;;10.42;41.15;101791.89;1675176;85;21128;-37
2021/10/08 14:34:33;;;;;;;17.50;7.15;;;;;;;10.41;41.22;101789.25;1686052;84;21097;-37
2021/10/08 14:37:00;;;;;;;25.62;10.18;;;;;;;10.39;41.26;101798.38;1605442;87;21037;-33
2021/10/08 14:39:27;;;;;;;26.02;10.45;;;;;;;10.34;40.92;101790.41;1677896;84;21084;-33
2021/10/08 14:41:55;;;;;;;21.27;8.50;;;;;;;10.30;41.01;101801.64;1642272;87;21026;-37
2021/10/08 14:44:22;;;;;;;29.52;8.55;;;;;;;10.26;40.74;101798.90;1669944;84;21035;-33
2021/10/08 14:46:49;;;;;;;16.27;7.10;;;;;;;10.20;40.58;101799.59;1665743;86;21058;-32
2021/10/08 14:49:15;;;;;;;22.42;8.05;;;;;;;10.15;40.47;101802.55;1665453;86;21077;-37
